San Antonio, TX (78246)

9:29 AM CDT on September 04, 2015 (GMT -0500)
Elm Creek | | Change Station
CLOSE
Current Station
Personal Weather Station
Location: San Antonio, TX
Elevation: 912 ft
Nearby Weather Stations

Elev 912 ft 29.55 °N, 98.55 °W | Updated 28 minutes ago

Mostly Cloudy
Mostly Cloudy
80.4 °F
Feels Like 85 °F
N
1.7
Wind Variable Wind from SSW

Today
High -- | Low -- °F
--% Chance of Precip.
Yesterday
High -- | Low -- °F
Precip. -- in
7:12 AM 7:52 PM
Waning Gibbous, 59% visible
Pressure 29.90 in
Visibility 10.0 miles
Clouds Mostly Cloudy 1000 ft
Mostly Cloudy 5000 ft
Mostly Cloudy 25000 ft
Heat Index 85 °F
Dew Point 74 °F
Humidity 82%
Rainfall 0.00 in
Snow Depth Not available.
UV 1 out of 12
Pollen 9.30 out of 12
Air Quality Not available.
Flu Activity Not available.
METAR KSAT 041351Z 17005KT 10SM BKN010 BKN050 BKN250 27/23 A2995 RMK AO2 SLP124 BKN010 V SCT T02720228
Pressure 29.90 in
Visibility 10.0 miles
Clouds Mostly Cloudy 1000 ft
Mostly Cloudy 5000 ft
Mostly Cloudy 25000 ft
Heat Index 85 °F
Dew Point 74 °F
Humidity 82%
Rainfall 0.00 in
Snow Depth Not available.
UV 1 out of 12
Pollen 9.30 out of 12
Air Quality Not available.
Flu Activity Not available.
METAR KSAT 041351Z 17005KT 10SM BKN010 BKN050 BKN250 27/23 A2995 RMK AO2 SLP124 BKN010 V SCT T02720228

10-Day Weather Forecast

×

Almanac

Astronomy

Sep. 04, 2015 Rise Set
Actual Time
Civil Twilight
Nautical Twilight
Astronomical Twilight
Moon
Length of Visible Light
Length of Day
Tomorrow will be .
, % of the Moon is Illuminated

Today's Extremes

State Highs State Lows

Community

WunderPhotos

Upload Photos

1,852,186 photos uploaded!

WunderBlogs® & News

Nearby

Air Quality

  Air Quality AQ Index Pollutant
Not available.

Snow Depth

Station Depth Elevation

Earthquake Activity

City Distance Mag. Time & Date
Minimum magnitude displayed is 2.5.

Coastal Water Temperatures

Place Temperature

Stations

Nearby Weather Stations

Station Location Temp. Windchill Dew Point Humidity Wind Precip. Elev Updated Type